x

North Michigan- Halfway Between North Manitou And Washington Islands. (45002) Wave Buoy

11:50pm - Tue 30th Aug 2016 All times are CDT. -5 hours from GMT.

  • Sig Wave height 3.0ft
  • Swell Direction
  • Peak Period 5s
  • Average Period 4s
  • Wind
    18mph, 20mph gusts
  • Sea Temp 71°f
  • Air Temp 67°f
  • Sea Pressure 1018.2mb
  • North Michigan- Halfway Between North Manitou And Washington Islands.
  • North Michigan- Halfway Between North Manitou And Washington Islands.

More Historic Weather Station data

Upgrade to MSW Pro to gain access to the past 30 days of data for over 8000 Wavebouys and Weather Stations around the globe.

Join Pro

Comparision Forecast

View Surf forecast
   
Tue 08/30 11:50pm 3ft 5s 4s 18 20 mph 1018.2mb 71f 67f
10:50pm 3ft 4s 4s 20 22 mph 1017.8mb 71f 68f
9:50pm 3ft 4s 4s 20 25 mph 1017.5mb 71f 68f
8:50pm 2.5ft 4s 3s 22 27 mph 1016.9mb 72f 69f
7:50pm 1ft 2s 2s 25 27 mph 1016.1mb 72f 71f
6:50pm 0.7ft  -  3s 11 13 mph 1015.9mb 73f 73f
5:50pm 0.7ft  -  3s 7 9 mph 1015.9mb 73f 73f
4:50pm 0.7ft  -  3s 9 11 mph 1015.6mb 73f 73f
3:50pm 0.7ft  -  3s 4 7 mph 1015.8mb 73f 73f
2:50pm 0.7ft  -  3s 7
mph
1016.3mb 73f 73f
1:50pm 1ft 3s 3s 2 4 mph 1017.1mb 73f 72f
12:50pm 1ft 3s 3s 7
mph
1017.7mb 72f 72f
11:50am 1ft 4s 3s 7
mph
1018.3mb 72f 71f
10:50am 1ft 3s 3s 9 11 mph 1018.3mb 71f 71f
9:50am 1ft 3s 3s 9
mph
1018.1mb 71f 71f
8:50am 1.3ft 4s 3s 9
mph
1018.2mb 71f 71f
7:50am 1.3ft 4s 3s 9 11 mph 1018.6mb 71f 71f
6:50am 1.3ft 4s 3s 9 11 mph 1018.4mb 71f 71f
5:50am 1.3ft 4s 3s 11 13 mph 1018mb 71f 72f
4:50am 1.3ft 4s 3s 11 13 mph 1018.2mb 71f 71f
3:50am 1.6ft 4s 3s 13 16 mph 1018.8mb 71f 72f
2:50am 1.6ft 4s 3s 13 16 mph 1019.2mb 71f 72f
1:50am 1.6ft 4s 3s 13 16 mph 1018.9mb 71f 72f
12:50am 2ft 4s 3s 16 20 mph 1019.2mb 71f 72f
Mon 08/29 11:50pm 1.6ft 3s 3s 16 20 mph 1019.7mb 71f 72f
10:50pm 1.6ft 4s 3s 11 13 mph 1019.5mb 71f 72f
9:50pm 1.6ft 3s 3s 13 16 mph 1019.8mb 71f 72f
8:50pm 1.3ft 3s 3s 13 16 mph 1020.1mb 71f 72f
7:50pm 1.3ft 3s 3s 13 16 mph 1020.3mb 71f 73f
6:50pm 1.3ft 3s 3s 11 13 mph 1020.6mb 71f 72f
5:50pm 1.3ft 3s 3s 11 13 mph 1021.2mb 71f 72f
4:50pm 1.3ft 3s  -  13 16 mph 1021.3mb 71f 72f
3:50pm 1ft 3s 3s 11 13 mph 1021.8mb 72f 72f
2:50pm 1ft 3s 3s 13
mph
1022mb 71f 71f
1:50pm 1ft 3s 3s 13 16 mph 1022.8mb 71f 71f
12:50pm 1ft 3s 3s 11 13 mph 1023.3mb 71f 70f
11:50am 1ft 3s 3s 11 13 mph 1023.9mb 71f 70f
10:50am 1ft 3s 3s 7
mph
1024.6mb 71f 69f
9:50am 1.3ft 3s 3s 11 13 mph 1024.5mb 71f 69f
8:50am 1.3ft 3s 3s 13
mph
1024.5mb 71f 69f
7:50am 1ft 3s 3s 13 16 mph 1024.2mb 71f 69f
6:50am 0.7ft  -  3s 13 16 mph 1023.9mb 71f 69f
5:50am 0.7ft  -  3s 11 13 mph 1024mb 71f 69f
4:50am 0.3ft  -  2s 9
mph
1024.1mb 71f 70f
3:50am 0.3ft  -  2s 9 11 mph 1024mb 71f 71f
2:50am 0.3ft  -  3s 9
mph
1023.7mb 71f 70f
1:50am 0.3ft  -  3s 7 9 mph 1023.4mb 71f 70f
12:50am 0.3ft  -  3s 4 7 mph 1023.5mb 71f 70f
Sun 08/28 11:50pm 0.3ft  -  3s 4 7 mph 1023.3mb 71f 70f
10:50pm 0.3ft  -  3s  -  2 mph 1023.1mb 71f 70f
9:50pm 0.3ft  -  3s 2
mph
1023.2mb 71f 70f
8:50pm 0.3ft  -  3s 2
mph
1023.1mb 72f 71f
7:50pm 0.3ft  -  3s 4
mph
1022.5mb 72f 71f
6:50pm 0.7ft  -  3s 9
mph
1022.1mb 72f 71f
5:50pm 0.7ft  -  3s 9 11 mph 1022.1mb 72f 71f
4:50pm 0.7ft  -  3s 9
mph
1021.9mb 72f 71f
3:50pm 0.7ft  -  3s 9
mph
1021.6mb 72f 70f
2:50pm 0.7ft  -  3s 4 7 mph 1021.9mb 72f 70f
1:50pm 1ft 3s 3s 4 7 mph 1022.6mb 71f 69f
12:50pm 1ft 3s 3s 7 9 mph 1022.5mb 71f 69f
11:50am 1.3ft 3s 3s 9 11 mph 1022.3mb 71f 68f
10:50am 1.3ft 3s 3s 11 13 mph 1022mb 71f 68f
9:50am 1ft 3s 3s 11 13 mph 1021.4mb 71f 68f
8:50am 1.3ft 3s 3s 11 13 mph 1020.8mb 70f 67f
7:50am 1.3ft 3s 3s 13 16 mph 1020.6mb 70f 67f
6:50am 1.3ft 4s 3s 11 13 mph 1020.1mb 70f 67f
5:50am 1.3ft 4s 3s 11 13 mph 1019.5mb 70f 67f
4:50am 1.3ft 3s 3s 11 16 mph 1019mb 70f 67f
2:50am 1ft 4s 3s 18 20 mph 1017.8mb 70f 67f
1:50am 1ft 3s 3s 13 16 mph 1017.4mb 70f 67f
12:50am 0.7ft  -  3s 11 13 mph 1017.1mb 70f 67f
Sat 08/27 11:50pm 0.7ft  -  3s 9
mph
1017.1mb 70f 67f
9:50pm 0.7ft  -  3s 2
mph
1016.3mb 70f 67f
8:50pm 0.7ft  -  3s 4
mph
1016.4mb 70f 67f
7:50pm 1ft 3s 3s 4 7 mph 1016.4mb 70f 66f
6:50pm 1ft 3s 3s 7 9 mph 1016.5mb 70f 66f
5:50pm 1ft 3s 3s 9 11 mph 1016.4mb 70f 65f
4:50pm 1ft 3s 3s 11 13 mph 1016.5mb 70f 65f
3:50pm 1.3ft 3s 3s 9 11 mph 1017mb 70f 64f
2:50pm 1.3ft 3s 3s 11 13 mph 1017.4mb 69f 65f
1:50pm 1.3ft 3s 3s 11 16 mph 1018mb 69f 66f
12:50pm 1ft 3s 3s 13 16 mph 1018.3mb 69f 66f
11:50am 1.6ft 3s 3s 9 11 mph 1018.8mb 69f 65f
10:50am 1.6ft 3s 3s 16 20 mph 1019.9mb 69f 64f
9:50am 1.6ft 3s 3s 13 16 mph 1020.5mb 69f 66f
8:50am 1.3ft 3s 3s 11 16 mph 1020.5mb 69f 67f
7:50am 1ft 2s 3s 13 16 mph 1020.1mb 70f 67f
6:50am 0.7ft  -  3s 11 13 mph 1020.7mb 70f 69f